Time;durP1;ratioP1;P1;durP2;ratioP2;P2;SDS_P1;SDS_P2;PMS_P1;PMS_P2;Temp;Humidity;BMP_temperature;BMP_pressure;BME280_temperature;BME280_humidity;BME280_pressure;Samples;Min_cycle;Max_cycle;Signal;HPM_P1;HPM_P2
2023/06/21 00:01:38;;;;;;;4.53;4.13;;;19.60;99.90;;;;;;5019312;28;20026;-84
2023/06/21 00:04:08;;;;;;;4.38;3.72;;;19.50;99.90;;;;;;5039966;28;20125;-85
2023/06/21 00:06:34;;;;;;;4.68;3.55;;;19.50;99.90;;;;;;5038592;28;20077;-85
2023/06/21 00:09:03;;;;;;;4.18;3.78;;;19.40;99.90;;;;;;4989487;28;20037;-83
2023/06/21 00:11:29;;;;;;;5.10;4.60;;;19.40;99.90;;;;;;5010990;28;20034;-85
2023/06/21 00:13:55;;;;;;;4.13;3.55;;;19.40;99.90;;;;;;5006905;28;20031;-85
2023/06/21 00:16:22;;;;;;;3.80;3.25;;;19.30;99.90;;;;;;5008526;28;20033;-85
2023/06/21 00:18:47;;;;;;;4.50;3.45;;;19.30;99.90;;;;;;4992338;28;20041;-85
2023/06/21 00:21:13;;;;;;;3.45;3.15;;;19.30;99.90;;;;;;5011431;28;20498;-85
2023/06/21 00:23:41;;;;;;;3.92;3.53;;;19.40;99.90;;;;;;5027559;28;20026;-83
2023/06/21 00:26:07;;;;;;;3.63;2.72;;;19.30;99.90;;;;;;5012835;28;20508;-84
2023/06/21 00:28:33;;;;;;;3.70;3.40;;;19.30;99.90;;;;;;5025787;28;20038;-85
2023/06/21 00:30:58;;;;;;;3.60;2.97;;;19.30;99.90;;;;;;5043900;28;20034;-84
2023/06/21 00:33:24;;;;;;;3.92;3.47;;;19.20;99.90;;;;;;5010750;28;20033;-84
2023/06/21 00:35:50;;;;;;;4.85;3.90;;;19.10;99.90;;;;;;5010158;28;20026;-84
2023/06/21 00:38:16;;;;;;;5.38;4.88;;;19.10;99.90;;;;;;5008757;28;20038;-85
2023/06/21 00:40:42;;;;;;;4.82;4.32;;;19.20;99.90;;;;;;4990677;28;20029;-85
2023/06/21 00:43:08;;;;;;;5.25;4.50;;;19.10;99.90;;;;;;4991867;28;20430;-84
2023/06/21 00:45:40;;;;;;;4.97;3.85;;;19.10;99.90;;;;;;5007229;28;20410;-85
2023/06/21 00:48:06;;;;;;;4.78;4.35;;;19.10;99.90;;;;;;5026220;28;20414;-84
2023/06/21 00:50:32;;;;;;;4.38;3.88;;;19.00;99.90;;;;;;4990823;28;20042;-84
2023/06/21 00:52:58;;;;;;;4.10;3.72;;;19.00;99.90;;;;;;4990362;28;20610;-85
2023/06/21 00:55:24;;;;;;;4.60;3.80;;;18.90;99.90;;;;;;4993108;28;20037;-85
2023/06/21 00:57:51;;;;;;;4.03;2.90;;;19.00;99.90;;;;;;4989226;28;20026;-84
2023/06/21 01:00:26;;;;;;;3.38;3.08;;;18.90;99.90;;;;;;5008542;28;20135;-84
2023/06/21 01:02:53;;;;;;;4.18;3.40;;;18.90;99.90;;;;;;4993500;28;20030;-85
2023/06/21 01:05:23;;;;;;;3.60;3.00;;;18.90;99.90;;;;;;5010562;28;20054;-85
2023/06/21 01:08:21;;;;;;;3.55;3.13;;;18.90;99.90;;;;;;5026581;28;20038;-85
2023/06/21 01:11:06;;;;;;;4.30;3.28;;;18.80;99.90;;;;;;4998235;28;20034;-85
2023/06/21 01:13:43;;;;;;;3.10;2.80;;;18.80;99.90;;;;;;5042909;28;20415;-85
2023/06/21 01:16:15;;;;;;;3.92;2.85;;;18.70;99.90;;;;;;5005905;28;20033;-85
2023/06/21 01:18:46;;;;;;;3.58;3.22;;;18.80;99.90;;;;;;4990719;28;20112;-85
2023/06/21 01:21:18;;;;;;;3.45;2.83;;;18.70;99.90;;;;;;5009171;28;20277;-85
2023/06/21 01:24:16;;;;;;;4.07;2.95;;;18.70;99.90;;;;;;4993077;28;20360;-85
2023/06/21 01:27:03;;;;;;;3.70;2.22;;;18.60;99.90;;;;;;5010207;28;20387;-85
2023/06/21 01:29:33;;;;;;;3.83;3.42;;;18.60;99.90;;;;;;4993362;28;20602;-85
2023/06/21 01:32:03;;;;;;;3.95;3.20;;;18.60;99.90;;;;;;5010134;28;20087;-85
2023/06/21 01:34:31;;;;;;;4.53;2.70;;;18.60;99.90;;;;;;5003028;28;20080;-85
2023/06/21 01:36:58;;;;;;;3.28;2.97;;;18.60;99.90;;;;;;5009685;28;20033;-85
2023/06/21 01:39:28;;;;;;;3.65;3.33;;;18.60;99.90;;;;;;5010009;28;20030;-85
2023/06/21 01:41:54;;;;;;;3.50;3.17;;;18.50;99.90;;;;;;5008449;28;20026;-84
2023/06/21 01:44:21;;;;;;;4.25;3.55;;;18.60;99.90;;;;;;4991965;28;20036;-84
2023/06/21 01:46:51;;;;;;;3.22;2.92;;;18.60;99.90;;;;;;5009129;28;20029;-84
2023/06/21 01:49:17;;;;;;;4.53;3.33;;;18.50;99.90;;;;;;5009738;28;20123;-84
2023/06/21 01:51:44;;;;;;;4.38;3.78;;;18.50;99.90;;;;;;5025372;28;20042;-84
2023/06/21 01:54:10;;;;;;;5.10;3.47;;;18.60;99.90;;;;;;5007726;28;20029;-85
2023/06/21 01:56:40;;;;;;;4.97;4.40;;;18.60;99.90;;;;;;4991814;28;20026;-84
2023/06/21 01:59:06;;;;;;;4.35;3.78;;;18.70;99.90;;;;;;4991039;28;20113;-85
2023/06/21 02:01:32;;;;;;;4.72;3.22;;;18.60;99.90;;;;;;5040464;28;20080;-85
2023/06/21 02:04:00;;;;;;;5.05;4.38;;;18.60;99.90;;;;;;5008145;28;20037;-85
2023/06/21 02:06:29;;;;;;;5.38;4.88;;;18.60;99.90;;;;;;5009081;28;20032;-85
2023/06/21 02:08:56;;;;;;;4.30;4.00;;;18.60;99.90;;;;;;5007313;28;20452;-85
2023/06/21 02:11:22;;;;;;;4.20;3.80;;;18.50;99.90;;;;;;4989632;28;20493;-85
2023/06/21 02:13:48;;;;;;;5.05;4.55;;;18.50;99.90;;;;;;5022783;28;20026;-84
2023/06/21 02:16:15;;;;;;;4.90;4.30;;;18.50;99.90;;;;;;5005632;28;20083;-85
2023/06/21 02:18:41;;;;;;;6.93;4.63;;;18.50;99.90;;;;;;5009594;28;20029;-85
2023/06/21 02:21:08;;;;;;;4.88;4.47;;;18.50;99.90;;;;;;5007112;28;20029;-85
2023/06/21 02:23:34;;;;;;;4.20;3.80;;;18.50;99.90;;;;;;5009268;28;20121;-85
2023/06/21 02:25:59;;;;;;;5.03;4.63;;;18.50;99.90;;;;;;5025531;28;20113;-85
2023/06/21 02:28:25;;;;;;;6.70;4.90;;;18.40;99.90;;;;;;5024166;28;20762;-85
2023/06/21 02:30:51;;;;;;;5.47;4.65;;;18.40;99.90;;;;;;4992163;28;20029;-85
2023/06/21 02:33:16;;;;;;;5.05;4.63;;;18.40;99.90;;;;;;5007639;28;20037;-85
2023/06/21 02:35:42;;;;;;;4.97;4.57;;;18.40;99.90;;;;;;4991024;28;20030;-85
2023/06/21 02:38:08;;;;;;;5.80;5.20;;;18.50;99.90;;;;;;4989689;28;20026;-85
2023/06/21 02:40:34;;;;;;;5.13;4.63;;;18.50;99.90;;;;;;5037784;28;20022;-85
2023/06/21 02:43:00;;;;;;;7.13;4.88;;;18.50;99.90;;;;;;5039698;28;20543;-85
2023/06/21 02:45:26;;;;;;;6.28;5.65;;;18.50;99.90;;;;;;5006424;28;20124;-85
2023/06/21 02:47:54;;;;;;;6.80;6.18;;;18.40;99.90;;;;;;5008229;28;20431;-84
2023/06/21 02:50:20;;;;;;;6.55;5.78;;;18.40;99.90;;;;;;5008446;28;20152;-85
2023/06/21 02:52:45;;;;;;;7.60;6.35;;;18.30;99.90;;;;;;4987656;28;20027;-84
2023/06/21 02:55:11;;;;;;;6.47;5.97;;;18.30;99.90;;;;;;4988707;28;20498;-85
2023/06/21 02:57:37;;;;;;;7.03;6.30;;;18.30;99.90;;;;;;5041615;28;20040;-85
2023/06/21 03:00:18;;;;;;;5.80;5.32;;;18.20;99.90;;;;;;5009079;28;20030;-85
2023/06/21 03:02:44;;;;;;;6.10;5.50;;;18.20;99.90;;;;;;5007644;28;20041;-85
2023/06/21 03:05:12;;;;;;;6.60;6.00;;;18.20;99.90;;;;;;5040262;28;20116;-85
2023/06/21 03:07:43;;;;;;;6.03;5.53;;;18.30;99.90;;;;;;5005735;28;20026;-84
2023/06/21 03:10:13;;;;;;;6.63;6.03;;;18.30;99.90;;;;;;4988440;28;20037;-84
2023/06/21 03:12:43;;;;;;;;;;;18.30;99.90;;;;;;5008995;28;20033;-84
2023/06/21 03:15:10;;;;;;;5.85;5.30;;;18.30;99.90;;;;;;5024438;28;19913;-84
2023/06/21 03:17:38;;;;;;;5.78;5.13;;;18.30;99.90;;;;;;5007593;28;20539;-84
2023/06/21 03:20:12;;;;;;;6.53;5.90;;;18.30;99.90;;;;;;5008476;28;20378;-85
2023/06/21 03:22:41;;;;;;;6.40;5.80;;;18.30;99.90;;;;;;5004353;28;20034;-85
2023/06/21 03:25:08;;;;;;;7.05;6.35;;;18.20;99.90;;;;;;5006727;28;20387;-85
2023/06/21 03:27:34;;;;;;;7.18;6.47;;;18.20;99.90;;;;;;4990109;28;20498;-84
2023/06/21 03:30:01;;;;;;;6.57;5.80;;;18.20;99.90;;;;;;5006638;28;20034;-85
2023/06/21 03:32:28;;;;;;;5.82;5.32;;;18.30;99.90;;;;;;5023373;28;20022;-84
2023/06/21 03:34:53;;;;;;;7.15;6.55;;;18.30;99.90;;;;;;5007882;28;20028;-84
2023/06/21 03:37:19;;;;;;;6.57;5.88;;;18.30;99.90;;;;;;5021905;28;20054;-85
2023/06/21 03:39:45;;;;;;;6.65;6.05;;;18.30;99.90;;;;;;5023865;28;20439;-85
2023/06/21 03:42:12;;;;;;;6.45;5.85;;;18.30;99.90;;;;;;4990330;28;20113;-85
2023/06/21 03:44:37;;;;;;;6.82;6.13;;;18.30;99.90;;;;;;4989905;28;20137;-85
2023/06/21 03:47:03;;;;;;;6.55;5.95;;;18.30;99.90;;;;;;5009853;28;20215;-85
2023/06/21 03:49:30;;;;;;;7.25;5.97;;;18.30;99.90;;;;;;5010366;28;20374;-85
2023/06/21 03:51:56;;;;;;;6.72;6.05;;;18.40;99.90;;;;;;4989028;28;20437;-85
2023/06/21 03:54:22;;;;;;;6.10;5.50;;;18.40;99.90;;;;;;5010963;28;20064;-84
2023/06/21 03:56:47;;;;;;;6.28;5.68;;;18.40;99.90;;;;;;4990770;28;20049;-84
2023/06/21 03:59:14;;;;;;;6.72;6.13;;;18.40;99.90;;;;;;4993840;28;20057;-84
2023/06/21 04:01:40;;;;;;;7.13;6.43;;;18.40;99.90;;;;;;4991991;28;20044;-83
2023/06/21 04:04:08;;;;;;;6.90;6.20;;;18.40;99.90;;;;;;5009566;28;20387;-84
2023/06/21 04:06:33;;;;;;;7.20;6.50;;;18.40;99.90;;;;;;4990105;28;20033;-84
2023/06/21 04:08:59;;;;;;;7.18;6.47;;;18.40;99.90;;;;;;5007054;28;20099;-84
2023/06/21 04:11:25;;;;;;;7.18;6.47;;;18.50;99.90;;;;;;5010672;28;20030;-83
2023/06/21 04:13:51;;;;;;;7.60;6.82;;;18.50;99.90;;;;;;5043400;28;20117;-84
2023/06/21 04:16:17;;;;;;;7.05;6.35;;;18.50;99.90;;;;;;4992976;28;20117;-84
2023/06/21 04:18:44;;;;;;;7.38;6.68;;;18.50;99.90;;;;;;5008733;28;20026;-84
2023/06/21 04:21:10;;;;;;;7.15;6.45;;;18.50;99.90;;;;;;5008895;28;20335;-84
2023/06/21 04:23:36;;;;;;;7.95;6.60;;;18.60;99.90;;;;;;5009281;28;20049;-84
2023/06/21 04:26:04;;;;;;;6.78;6.13;;;18.60;99.90;;;;;;5010620;28;20018;-84
2023/06/21 04:28:30;;;;;;;7.25;6.60;;;18.70;99.90;;;;;;5007240;28;20038;-84
2023/06/21 04:30:55;;;;;;;8.02;7.18;;;18.70;99.90;;;;;;5006481;28;20019;-84
2023/06/21 04:33:22;;;;;;;8.95;7.35;;;18.80;99.90;;;;;;4992317;28;20080;-84
2023/06/21 04:35:47;;;;;;;10.32;8.00;;;18.80;99.90;;;;;;5027013;28;20037;-84
2023/06/21 04:38:13;;;;;;;9.55;8.55;;;18.90;99.90;;;;;;4992214;28;20392;-84
2023/06/21 04:40:39;;;;;;;10.82;8.93;;;18.80;99.90;;;;;;4993064;28;20394;-84
2023/06/21 04:43:06;;;;;;;9.95;8.73;;;18.90;99.90;;;;;;4991954;28;20033;-84
2023/06/21 04:45:32;;;;;;;10.38;9.23;;;18.90;99.90;;;;;;5026583;28;20028;-84
2023/06/21 04:47:57;;;;;;;10.75;9.75;;;18.90;99.90;;;;;;5026720;28;20125;-84
2023/06/21 04:50:24;;;;;;;10.77;9.68;;;19.00;99.90;;;;;;5009370;28;20064;-84
2023/06/21 04:52:51;;;;;;;12.98;11.13;;;19.00;99.90;;;;;;4986812;28;20027;-84
2023/06/21 04:55:17;;;;;;;12.05;10.77;;;19.00;99.90;;;;;;5026601;28;20030;-84
2023/06/21 04:57:45;;;;;;;13.15;11.85;;;19.10;99.90;;;;;;4990034;28;20073;-84
2023/06/21 05:00:11;;;;;;;13.02;11.15;;;19.10;99.90;;;;;;5042762;28;20413;-84
2023/06/21 05:02:37;;;;;;;13.88;12.48;;;19.10;99.90;;;;;;5026549;28;20029;-84
2023/06/21 05:05:02;;;;;;;12.38;11.18;;;19.20;99.90;;;;;;5006243;28;20030;-84
2023/06/21 05:07:28;;;;;;;14.02;11.93;;;19.20;99.90;;;;;;5039503;28;20449;-84
2023/06/21 05:09:54;;;;;;;12.23;11.02;;;19.20;99.90;;;;;;4990796;28;20034;-84
2023/06/21 05:12:19;;;;;;;13.65;12.25;;;19.20;99.90;;;;;;5009383;28;20033;-83
2023/06/21 05:14:45;;;;;;;18.45;15.75;;;19.20;99.90;;;;;;5006728;28;20038;-83
2023/06/21 05:17:13;;;;;;;19.08;16.98;;;19.10;99.90;;;;;;5008710;28;20018;-83
2023/06/21 05:19:39;;;;;;;16.67;14.98;;;19.10;99.90;;;;;;5014900;28;20076;-83
2023/06/21 05:22:04;;;;;;;14.35;12.95;;;19.10;99.90;;;;;;5009017;28;20108;-83
2023/06/21 05:24:30;;;;;;;12.98;11.63;;;19.20;99.90;;;;;;5032974;28;20470;-85
2023/06/21 05:26:56;;;;;;;11.43;10.32;;;19.20;99.90;;;;;;5007340;28;20076;-85
2023/06/21 05:29:24;;;;;;;12.98;11.57;;;19.30;99.90;;;;;;5022724;28;20053;-84
2023/06/21 05:31:49;;;;;;;11.27;10.18;;;19.40;99.90;;;;;;5024233;28;20024;-84
2023/06/21 05:34:15;;;;;;;11.90;10.70;;;19.50;99.90;;;;;;5040320;28;20570;-83
2023/06/21 05:36:41;;;;;;;10.23;8.68;;;19.50;99.90;;;;;;5023876;28;20030;-83
2023/06/21 05:39:06;;;;;;;12.75;10.82;;;19.60;99.90;;;;;;5005728;28;20066;-84
2023/06/21 05:41:32;;;;;;;12.43;11.13;;;19.60;99.90;;;;;;4989460;28;20040;-83
2023/06/21 05:43:58;;;;;;;14.45;13.05;;;19.60;99.90;;;;;;5008502;28;20041;-84
2023/06/21 05:46:23;;;;;;;11.23;10.13;;;19.60;99.90;;;;;;5022340;28;20018;-85
2023/06/21 05:48:49;;;;;;;9.98;8.93;;;19.80;99.90;;;;;;5025563;28;20041;-84
2023/06/21 05:51:15;;;;;;;14.60;13.02;;;19.80;99.90;;;;;;5008286;28;20050;-83
2023/06/21 05:53:40;;;;;;;16.02;14.40;;;19.60;99.90;;;;;;5009679;28;20040;-82
2023/06/21 05:56:06;;;;;;;20.88;18.70;;;19.60;99.90;;;;;;5004825;28;20029;-83
2023/06/21 05:58:32;;;;;;;21.92;19.67;;;19.60;99.90;;;;;;5021610;28;20030;-81
2023/06/21 06:00:57;;;;;;;24.67;22.15;;;19.60;99.90;;;;;;5021915;28;20021;-83
2023/06/21 06:03:24;;;;;;;20.67;17.50;;;19.40;99.90;;;;;;5023663;28;20386;-82
2023/06/21 06:05:50;;;;;;;16.45;14.75;;;19.50;99.90;;;;;;5024939;28;20045;-83
2023/06/21 06:08:16;;;;;;;17.05;15.30;;;19.60;99.90;;;;;;4986368;28;20034;-83
2023/06/21 06:10:42;;;;;;;20.45;16.83;;;19.70;99.90;;;;;;5022546;28;20096;-83
2023/06/21 06:13:08;;;;;;;18.75;16.15;;;19.70;99.90;;;;;;5022906;28;20104;-82
2023/06/21 06:15:34;;;;;;;23.90;21.38;;;19.80;99.90;;;;;;4987662;28;20080;-81
2023/06/21 06:17:59;;;;;;;27.48;24.60;;;19.70;99.90;;;;;;5021420;28;20042;-82
2023/06/21 06:20:26;;;;;;;24.30;21.73;;;19.60;99.90;;;;;;5021263;28;20041;-82
2023/06/21 06:22:52;;;;;;;25.48;22.88;;;19.70;99.90;;;;;;5022432;28;20043;-82
2023/06/21 06:25:18;;;;;;;20.05;18.05;;;19.90;99.90;;;;;;5003297;28;20034;-82
2023/06/21 06:27:44;;;;;;;27.05;24.35;;;20.20;99.90;;;;;;4989282;28;20111;-82
2023/06/21 06:30:11;;;;;;;26.75;24.08;;;20.10;99.90;;;;;;5023002;28;20069;-82
2023/06/21 06:32:37;;;;;;;29.55;26.38;;;20.30;99.90;;;;;;5024609;28;20030;-82
2023/06/21 06:35:03;;;;;;;29.67;26.67;;;20.40;99.90;;;;;;5020741;28;20037;-82
2023/06/21 06:37:28;;;;;;;28.92;25.88;;;20.30;99.90;;;;;;5024041;28;20060;-82
2023/06/21 06:39:55;;;;;;;27.88;24.85;;;20.20;99.90;;;;;;5005382;28;20068;-82
2023/06/21 06:42:21;;;;;;;25.27;22.42;;;20.40;99.90;;;;;;4987481;28;20030;-83
2023/06/21 06:44:50;;;;;;;25.60;22.92;;;20.50;99.90;;;;;;5008188;28;20139;-82
2023/06/21 06:47:16;;;;;;;27.67;24.75;;;20.60;99.90;;;;;;5005332;28;20037;-82
2023/06/21 06:49:42;;;;;;;21.00;18.67;;;20.50;99.90;;;;;;5022297;28;20125;-82
2023/06/21 06:52:10;;;;;;;24.52;22.13;;;20.50;99.90;;;;;;5019709;28;20153;-81
2023/06/21 06:54:36;;;;;;;27.05;24.35;;;20.30;99.90;;;;;;5035409;28;20030;-83
2023/06/21 06:57:02;;;;;;;24.70;22.20;;;20.20;99.90;;;;;;5020384;28;20030;-82
2023/06/21 06:59:27;;;;;;;28.67;24.30;;;20.50;99.90;;;;;;5017405;28;20436;-82
2023/06/21 07:01:53;;;;;;;26.73;23.95;;;20.30;99.90;;;;;;5002875;28;20426;-83
2023/06/21 07:04:19;;;;;;;24.15;21.55;;;20.10;99.90;;;;;;5019571;28;20032;-83
2023/06/21 07:06:44;;;;;;;23.00;20.77;;;20.30;99.90;;;;;;4984589;28;20033;-84
2023/06/21 07:09:10;;;;;;;21.92;19.55;;;20.40;99.90;;;;;;4985131;28;20133;-81
2023/06/21 07:11:36;;;;;;;16.23;14.60;;;20.80;99.90;;;;;;5001853;28;20080;-82
2023/06/21 07:14:01;;;;;;;21.02;18.90;;;20.70;99.90;;;;;;5002944;28;20060;-82
2023/06/21 07:16:34;;;;;;;18.17;16.27;;;20.50;99.90;;;;;;5013566;28;20030;-82
2023/06/21 07:19:02;;;;;;;22.08;19.90;;;20.30;99.90;;;;;;5011780;28;20080;-82
2023/06/21 07:21:28;;;;;;;20.92;18.70;;;20.40;99.90;;;;;;5002572;28;20456;-82
2023/06/21 07:23:54;;;;;;;23.23;20.92;;;20.30;99.90;;;;;;5015532;28;20450;-82
2023/06/21 07:26:19;;;;;;;24.13;21.67;;;20.40;99.90;;;;;;5034029;28;20030;-82
2023/06/21 07:28:45;;;;;;;23.90;21.35;;;20.40;99.90;;;;;;5017858;28;20072;-82
2023/06/21 07:31:11;;;;;;;20.95;18.85;;;20.60;99.90;;;;;;5020142;28;20036;-82
2023/06/21 07:33:37;;;;;;;23.33;20.92;;;20.70;99.90;;;;;;5003517;28;20029;-82
2023/06/21 07:36:03;;;;;;;24.02;21.60;;;20.70;99.90;;;;;;5019107;28;20410;-82
2023/06/21 07:38:28;;;;;;;26.15;23.42;;;20.60;99.90;;;;;;5018678;28;20042;-82
2023/06/21 07:40:54;;;;;;;26.60;23.80;;;20.50;99.90;;;;;;5000718;28;20044;-82
2023/06/21 07:43:20;;;;;;;26.30;23.67;;;20.50;99.90;;;;;;5032975;28;20054;-82
2023/06/21 07:45:46;;;;;;;20.73;18.60;;;20.50;99.90;;;;;;5016058;28;20532;-82
2023/06/21 07:48:11;;;;;;;26.58;23.92;;;20.70;99.90;;;;;;5015791;28;20061;-82
2023/06/21 07:50:37;;;;;;;33.90;30.50;;;20.80;99.90;;;;;;4983747;28;20030;-81
2023/06/21 07:53:03;;;;;;;28.88;26.08;;;20.70;99.90;;;;;;5019216;28;20045;-82
2023/06/21 07:55:29;;;;;;;26.00;23.58;;;20.70;99.90;;;;;;5034297;28;20038;-82
2023/06/21 07:57:55;;;;;;;26.83;24.33;;;20.80;99.90;;;;;;5035210;28;20041;-83
2023/06/21 08:00:20;;;;;;;25.17;22.58;;;21.30;99.90;;;;;;5002234;28;20018;-81
2023/06/21 08:02:51;;;;;;;19.58;17.77;;;21.60;99.90;;;;;;5033861;28;20030;-81
2023/06/21 08:05:17;;;;;;;18.20;16.50;;;22.10;99.90;;;;;;5018688;28;20372;-82
2023/06/21 08:07:43;;;;;;;26.33;23.83;;;22.90;99.90;;;;;;5003020;28;20038;-82
2023/06/21 08:10:10;;;;;;;24.80;22.40;;;22.10;99.90;;;;;;5003154;28;20053;-82
2023/06/21 08:12:36;;;;;;;27.83;25.15;;;21.80;99.90;;;;;;5018646;28;20061;-82
2023/06/21 08:15:02;;;;;;;23.85;21.48;;;21.70;99.90;;;;;;5018887;28;20450;-83
2023/06/21 08:17:28;;;;;;;17.42;15.82;;;22.30;99.90;;;;;;5000501;28;20443;-82
2023/06/21 08:19:54;;;;;;;21.27;19.27;;;22.60;99.90;;;;;;5034580;28;20123;-82
2023/06/21 08:22:20;;;;;;;14.32;12.82;;;22.30;99.90;;;;;;5001648;28;20018;-80
2023/06/21 08:24:46;;;;;;;15.38;13.80;;;22.30;99.90;;;;;;5015598;28;20026;-81
2023/06/21 08:27:14;;;;;;;14.98;13.57;;;22.90;99.90;;;;;;5018582;28;20033;-81
2023/06/21 08:29:40;;;;;;;23.08;20.77;;;22.90;99.90;;;;;;4977763;28;20510;-82
2023/06/21 08:32:06;;;;;;;23.42;21.13;;;22.20;99.90;;;;;;5019723;28;20022;-81
2023/06/21 08:34:32;;;;;;;22.75;20.25;;;21.70;99.90;;;;;;5020274;28;20030;-81
2023/06/21 08:36:58;;;;;;;21.88;19.77;;;22.00;99.90;;;;;;5020657;28;20088;-82
2023/06/21 08:39:24;;;;;;;21.33;18.15;;;22.40;99.90;;;;;;5017147;28;20026;-82
2023/06/21 08:41:49;;;;;;;21.48;19.35;;;22.20;99.90;;;;;;5017602;28;20037;-81
2023/06/21 08:44:15;;;;;;;13.43;12.18;;;22.30;99.90;;;;;;5019441;28;20133;-83
2023/06/21 08:46:42;;;;;;;11.70;10.60;;;23.80;99.90;;;;;;5023029;28;20463;-82
2023/06/21 08:49:13;;;;;;;16.20;14.52;;;24.30;99.90;;;;;;5017266;28;20041;-83
2023/06/21 08:51:40;;;;;;;15.65;14.10;;;24.10;99.90;;;;;;5018905;28;20553;-82
2023/06/21 08:54:07;;;;;;;18.85;16.95;;;23.60;99.90;;;;;;5020734;28;20041;-82
2023/06/21 08:56:41;;;;;;;16.63;14.98;;;23.40;99.90;;;;;;5019906;28;20032;-83
2023/06/21 08:59:19;;;;;;;15.63;14.02;;;23.10;99.90;;;;;;5006324;28;20034;-83
2023/06/21 09:02:04;;;;;;;17.42;14.98;;;22.60;99.90;;;;;;5020667;28;20028;-82
2023/06/21 09:04:35;;;;;;;17.42;15.00;;;22.90;99.90;;;;;;5005932;28;20514;-82
2023/06/21 09:07:01;;;;;;;13.93;12.52;;;22.90;99.90;;;;;;5021536;28;20116;-83
2023/06/21 09:09:28;;;;;;;15.70;14.10;;;22.60;99.90;;;;;;5021979;28;20038;-83
2023/06/21 09:11:55;;;;;;;13.13;10.27;;;22.70;99.90;;;;;;5038313;28;20050;-83
2023/06/21 09:14:21;;;;;;;8.68;7.78;;;22.90;99.90;;;;;;5004921;28;20033;-83
2023/06/21 09:16:48;;;;;;;13.13;11.75;;;23.70;99.90;;;;;;5021335;28;20105;-84
2023/06/21 09:19:14;;;;;;;14.57;13.00;;;23.70;99.90;;;;;;5004499;28;20129;-83
2023/06/21 09:21:42;;;;;;;13.32;11.93;;;23.10;99.90;;;;;;5004391;28;20064;-82
2023/06/21 09:24:08;;;;;;;9.70;8.80;;;22.70;99.90;;;;;;5005117;28;20122;-84
2023/06/21 09:26:36;;;;;;;9.15;8.27;;;23.70;99.90;;;;;;4987609;28;20161;-84
2023/06/21 09:29:02;;;;;;;9.57;8.65;;;24.90;99.90;;;;;;5019773;28;20040;-83
2023/06/21 09:31:28;;;;;;;7.60;6.18;;;24.50;99.90;;;;;;5002632;28;20474;-84
2023/06/21 09:33:54;;;;;;;5.45;4.40;;;25.30;99.90;;;;;;5035805;28;20080;-83
2023/06/21 09:36:20;;;;;;;8.25;7.53;;;25.70;99.90;;;;;;5003874;28;20034;-84
2023/06/21 09:38:46;;;;;;;5.95;5.35;;;25.30;99.90;;;;;;5035817;28;20036;-84
2023/06/21 09:41:12;;;;;;;5.70;5.20;;;25.80;99.90;;;;;;5002219;28;20478;-85
2023/06/21 09:43:42;;;;;;;8.68;7.55;;;26.20;99.90;;;;;;5036815;28;20574;-84
2023/06/21 09:46:09;;;;;;;5.72;4.05;;;25.70;99.90;;;;;;5003891;28;20107;-83
2023/06/21 09:48:36;;;;;;;4.15;3.25;;;26.10;99.90;;;;;;4981794;28;20494;-84
2023/06/21 09:51:05;;;;;;;2.85;2.42;;;26.60;99.90;;;;;;4982985;28;20054;-84
2023/06/21 09:53:31;;;;;;;5.40;3.70;;;26.30;99.90;;;;;;5002567;28;20026;-82
2023/06/21 09:56:00;;;;;;;4.47;3.55;;;25.60;99.90;;;;;;5002641;28;20037;-85
2023/06/21 09:58:25;;;;;;;3.63;3.15;;;25.30;99.90;;;;;;5019904;28;20070;-84
2023/06/21 10:00:51;;;;;;;3.22;2.78;;;25.40;99.90;;;;;;5018334;28;20105;-84
2023/06/21 10:03:22;;;;;;;3.65;2.65;;;25.90;99.90;;;;;;5005659;28;20026;-84
2023/06/21 10:05:58;;;;;;;5.50;3.22;;;26.20;99.90;;;;;;5005457;28;20063;-83
2023/06/21 10:08:33;;;;;;;2.42;1.67;;;25.80;99.90;;;;;;5004411;28;20197;-84
2023/06/21 10:10:59;;;;;;;3.17;2.20;;;26.50;99.90;;;;;;5001646;28;20030;-85
2023/06/21 10:13:30;;;;;;;4.03;2.40;;;26.20;99.90;;;;;;5003007;28;20368;-84
2023/06/21 10:15:56;;;;;;;3.78;1.67;;;26.10;99.90;;;;;;5036282;28;20292;-84
2023/06/21 10:18:23;;;;;;;2.80;2.15;;;25.90;99.90;;;;;;5003407;28;20069;-85
2023/06/21 10:21:03;;;;;;;2.42;1.60;;;25.60;99.90;;;;;;5000407;28;20029;-83
2023/06/21 10:23:31;;;;;;;3.63;2.35;;;25.80;99.90;;;;;;5005483;28;20561;-84
2023/06/21 10:26:04;;;;;;;4.32;2.05;;;25.40;99.90;;;;;;5004690;28;20026;-83
2023/06/21 10:28:36;;;;;;;3.10;1.98;;;25.10;99.90;;;;;;5020724;28;20026;-84
2023/06/21 10:31:09;;;;;;;2.58;0.82;;;25.50;99.90;;;;;;4985714;28;20172;-85
2023/06/21 10:33:37;;;;;;;1.55;0.63;;;26.60;99.90;;;;;;5020711;28;20022;-85
2023/06/21 10:36:05;;;;;;;2.47;1.80;;;27.00;99.90;;;;;;5020487;28;20030;-85
2023/06/21 10:38:35;;;;;;;1.73;0.98;;;26.20;99.90;;;;;;5036822;28;20080;-84
2023/06/21 10:41:03;;;;;;;3.75;2.22;;;26.30;99.90;;;;;;5019378;28;20541;-84
2023/06/21 10:43:30;;;;;;;3.20;2.63;;;25.80;99.90;;;;;;5003804;28;20030;-84
2023/06/21 10:45:57;;;;;;;3.00;1.85;;;25.50;99.90;;;;;;5019726;28;20036;-84
2023/06/21 10:48:25;;;;;;;2.47;1.50;;;25.60;99.90;;;;;;5004272;28;20084;-85
2023/06/21 10:50:52;;;;;;;3.10;1.80;;;25.60;99.90;;;;;;5018356;28;20072;-84
2023/06/21 10:53:19;;;;;;;2.85;1.00;;;25.90;99.90;;;;;;5035478;28;20038;-85
2023/06/21 10:55:46;;;;;;;17.48;2.72;;;25.90;99.90;;;;;;5018204;28;20030;-84
2023/06/21 10:58:13;;;;;;;2.60;1.20;;;26.30;99.90;;;;;;4999550;28;20347;-83
2023/06/21 11:00:42;;;;;;;5.60;1.30;;;26.50;99.90;;;;;;5003451;28;20113;-85
2023/06/21 11:03:12;;;;;;;1.65;0.80;;;26.40;99.90;;;;;;5001252;28;20041;-84
2023/06/21 11:05:40;;;;;;;1.80;0.85;;;26.40;99.90;;;;;;4981482;28;20061;-85
2023/06/21 11:08:06;;;;;;;1.73;1.00;;;26.10;99.90;;;;;;5033821;28;20042;-84
2023/06/21 11:10:38;;;;;;;4.20;1.73;;;26.10;99.90;;;;;;5004020;28;20065;-82
2023/06/21 11:13:04;;;;;;;2.40;2.17;;;26.00;99.90;;;;;;5002203;28;20029;-84
2023/06/21 11:15:32;;;;;;;4.25;2.10;;;26.00;99.90;;;;;;5018544;28;20032;-85
2023/06/21 11:18:08;;;;;;;3.75;1.75;;;25.60;99.90;;;;;;5004358;28;20389;-83
2023/06/21 11:20:45;;;;;;;8.30;1.92;;;25.60;99.90;;;;;;5018526;28;20036;-83
2023/06/21 11:23:17;;;;;;;1.77;0.93;;;25.30;99.90;;;;;;5000228;28;20021;-84
2023/06/21 11:25:50;;;;;;;1.90;0.77;;;26.10;99.90;;;;;;5001809;28;20053;-84
2023/06/21 11:28:19;;;;;;;1.77;1.10;;;26.20;99.90;;;;;;5003110;28;20120;-84
2023/06/21 11:31:00;;;;;;;2.53;1.20;;;26.60;99.90;;;;;;5016377;28;20105;-84
2023/06/21 11:33:32;;;;;;;2.85;1.20;;;26.00;99.90;;;;;;5002340;28;20491;-84
2023/06/21 11:36:08;;;;;;;2.40;1.23;;;26.10;99.90;;;;;;5018803;28;20502;-86
2023/06/21 11:38:35;;;;;;;2.30;1.40;;;25.90;99.90;;;;;;4980285;28;20491;-85
2023/06/21 11:41:01;;;;;;;2.15;1.27;;;26.20;99.90;;;;;;4997642;28;20069;-83
2023/06/21 11:43:27;;;;;;;3.38;1.38;;;25.90;99.90;;;;;;5018018;28;20125;-85
2023/06/21 11:46:00;;;;;;;1.95;0.95;;;26.10;99.90;;;;;;5003719;28;20030;-84
2023/06/21 11:48:29;;;;;;;2.45;0.90;;;26.30;99.90;;;;;;5001382;28;20061;-85
2023/06/21 11:51:07;;;;;;;1.83;1.02;;;25.70;99.90;;;;;;5002843;28;20041;-85
2023/06/21 11:53:41;;;;;;;2.63;1.58;;;26.20;99.90;;;;;;5003591;28;20454;-85
2023/06/21 11:56:16;;;;;;;3.35;2.10;;;26.00;99.90;;;;;;4985688;28;20391;-84
2023/06/21 11:58:42;;;;;;;3.47;1.35;;;26.00;99.90;;;;;;5034121;28;20037;-84
2023/06/21 12:01:07;;;;;;;2.35;1.15;;;26.00;99.90;;;;;;5036676;28;20030;-83
2023/06/21 12:03:33;;;;;;;2.13;0.98;;;26.20;99.90;;;;;;5002076;28;20032;-85
2023/06/21 12:06:01;;;;;;;2.00;1.00;;;26.10;99.90;;;;;;5003717;28;20092;-85
2023/06/21 12:08:37;;;;;;;3.45;1.02;;;25.50;99.90;;;;;;5021532;28;20434;-84
2023/06/21 12:11:05;;;;;;;1.75;0.80;;;25.40;99.90;;;;;;5003963;28;20054;-84
2023/06/21 12:13:32;;;;;;;2.10;0.80;;;26.10;99.90;;;;;;5039968;28;20026;-84
2023/06/21 12:15:58;;;;;;;1.58;0.77;;;26.20;99.90;;;;;;5000794;28;20486;-84
2023/06/21 12:18:26;;;;;;;2.03;0.70;;;26.30;99.90;;;;;;5036954;28;20075;-84
2023/06/21 12:20:54;;;;;;;2.22;1.10;;;27.00;99.90;;;;;;5006755;28;20034;-84
2023/06/21 12:23:21;;;;;;;1.75;0.70;;;26.60;99.90;;;;;;4984999;28;20030;-84
2023/06/21 12:25:49;;;;;;;1.70;0.80;;;26.30;99.90;;;;;;4987541;28;20652;-84
2023/06/21 12:28:16;;;;;;;2.83;1.35;;;26.60;99.90;;;;;;5023344;28;20505;-85
2023/06/21 12:31:06;;;;;;;1.77;0.88;;;25.90;99.90;;;;;;5006133;28;20034;-84
2023/06/21 12:33:36;;;;;;;2.95;1.08;;;25.50;99.90;;;;;;5022056;28;20077;-84
2023/06/21 12:36:25;;;;;;;2.10;0.88;;;26.00;99.90;;;;;;5019107;28;20112;-84
2023/06/21 12:38:57;;;;;;;3.75;1.00;;;26.30;99.90;;;;;;4986106;28;20037;-83
2023/06/21 12:41:29;;;;;;;1.73;0.80;;;26.00;99.90;;;;;;4987427;28;20120;-84
2023/06/21 12:43:59;;;;;;;1.92;0.70;;;26.70;99.90;;;;;;5006597;28;20022;-85